Flag for USA

Past Weather in 35°59'54.2"N, 96°07'12.8"W, USA — Yesterday and Last 2 Weeks

Currently: 38 °F. Passing clouds. (Weather station: Tulsa International Airport, USA). See more current weather

Past Weather in 35°59'54.2"N, 96°07'12.8"W — Graph

°F

35°59'54.2"N, 96°07'12.8"W Temperature Yesterday

Maximum temperature yesterday: 63 °F (at 12:53 am)
Minimum temperature yesterday: 40 °F (at 11:53 pm)
Average temperature yesterday: 54 °F

High & Low Weather Summary for the Past Weeks

 TemperatureHumidityPressure
High74 °F (Feb 23, 3:53 pm)92% (Feb 10, 1:53 pm)30.54 "Hg (Feb 10, 1:53 pm)
Low-13 °F (Feb 16, 5:53 am)26% (Feb 22, 3:53 pm)29.65 "Hg (Feb 24, 12:53 am)
Average24 °F70%30.26 "Hg
* Reported Feb 10 8:53 am — Feb 25 8:53 am, 35°59'54.2"N, 96°07'12.8"W. Weather by CustomWeather, © 2021

Note: Actual official high and low records may vary slightly from our data, if they occured in-between our weather recording intervals... More about our weather records

35°59'54.2"N, 96°07'12.8"W Weather History for the Previous 24 Hours

Scroll right to see more
 ConditionsComfort  
Time TempWeatherWind HumidityBarometerVisibility
8:53 am
Thu, Feb 25
38 °FPassing clouds.6 mph76%30.38 "Hg10 mi
7:53 am34 °FSunny.7 mph82%30.36 "Hg10 mi
6:53 am30 °FClear.8 mph89%30.37 "Hg10 mi
5:53 am31 °FClear.9 mph89%30.36 "Hg10 mi
4:53 am32 °FClear.8 mph85%30.33 "Hg10 mi
3:53 am33 °FClear.8 mph85%30.33 "Hg10 mi
2:53 am35 °FClear.9 mph82%30.32 "Hg10 mi
1:53 am36 °FClear.7 mph79%30.34 "Hg10 mi
12:53 am39 °FClear.9 mph73%30.33 "Hg10 mi
11:53 pm
Wed, Feb 24
40 °FClear.13 mph70%30.31 "Hg10 mi
10:53 pm42 °FClear.17 mph65%30.30 "Hg10 mi
9:53 pm45 °FClear.12 mph58%30.27 "Hg10 mi
8:53 pm47 °FClear.14 mph52%30.23 "Hg10 mi
7:53 pm50 °FClear.14 mph44%30.20 "Hg10 mi
6:53 pm50 °FClear.9 mph43%30.18 "Hg10 mi
5:53 pm55 °FSunny.16 mph35%30.14 "Hg10 mi
4:53 pm57 °FPassing clouds.14 mph33%30.12 "Hg10 mi
3:53 pm59 °FPassing clouds.15 mph32%30.09 "Hg10 mi
2:53 pm61 °FPassing clouds.20 mph31%30.09 "Hg10 mi
1:53 pm60 °FSunny.20 mph31%30.07 "Hg10 mi
12:53 pm60 °FSunny.16 mph33%30.06 "Hg10 mi
11:53 am59 °FSunny.17 mph33%30.06 "Hg10 mi
10:53 am56 °FSunny.20 mph39%30.03 "Hg10 mi
9:53 am53 °FSunny.18 mph41%30.01 "Hg10 mi
Weather by CustomWeather, © 2021

See weather overview